createdAt,value
2023-05-19T00:01:21.536Z,101054.00
2023-05-19T00:04:07.865Z,101054.06
2023-05-19T00:06:39.366Z,101055.00
2023-05-19T00:09:10.788Z,101056.75
2023-05-19T00:11:41.993Z,101060.34
2023-05-19T00:14:14.896Z,101066.56
2023-05-19T00:16:42.418Z,101061.25
2023-05-19T00:19:10.357Z,101065.53
2023-05-19T00:21:41.184Z,101059.16
2023-05-19T00:24:10.790Z,101059.78
2023-05-19T00:26:37.495Z,101058.72
2023-05-19T00:29:04.681Z,101072.50
2023-05-19T00:31:31.875Z,101076.78
2023-05-19T00:33:58.559Z,101069.50
2023-05-19T00:36:27.668Z,101066.66
2023-05-19T00:38:57.421Z,101066.44
2023-05-19T00:41:26.861Z,101062.75
2023-05-19T00:43:56.662Z,101069.63
2023-05-19T00:46:23.488Z,101072.13
2023-05-19T00:48:50.129Z,101069.28
2023-05-19T00:51:17.363Z,101063.81
2023-05-19T00:53:51.349Z,101061.00
2023-05-19T00:56:24.475Z,101060.00
2023-05-19T00:58:54.552Z,101060.94
2023-05-19T01:01:24.568Z,101063.72
2023-05-19T01:03:51.556Z,101070.84
2023-05-19T01:06:19.450Z,101060.41
2023-05-19T01:08:49.324Z,101072.88
2023-05-19T01:11:15.914Z,101068.44
2023-05-19T01:13:43.378Z,101069.28
2023-05-19T01:16:34.895Z,101058.75
2023-05-19T01:19:16.522Z,101065.47
2023-05-19T01:22:14.796Z,101058.06
2023-05-19T01:25:03.026Z,101058.63
2023-05-19T01:27:49.529Z,101055.03
2023-05-19T01:30:35.916Z,101068.34
2023-05-19T01:33:11.395Z,101071.06
2023-05-19T01:35:39.863Z,101059.28
2023-05-19T01:38:11.388Z,101065.00
2023-05-19T01:40:42.847Z,101069.75
2023-05-19T01:43:12.636Z,101056.94
2023-05-19T01:45:40.865Z,101070.56
2023-05-19T01:48:11.170Z,101070.03
2023-05-19T01:50:38.219Z,101069.63
2023-05-19T01:53:06.806Z,101067.59
2023-05-19T01:55:41.625Z,101061.31
2023-05-19T01:58:20.819Z,101051.34
2023-05-19T02:01:03.015Z,101058.13
2023-05-19T02:03:46.110Z,101053.38
2023-05-19T02:06:59.905Z,101055.59
2023-05-19T02:09:53.610Z,101058.66
2023-05-19T02:12:30.982Z,101050.19
2023-05-19T02:15:24.865Z,101053.09
2023-05-19T02:17:56.268Z,101049.72
2023-05-19T02:20:27.413Z,101039.50
2023-05-19T02:22:56.118Z,101042.75
2023-05-19T02:25:25.671Z,101042.63
2023-05-19T02:27:58.944Z,101043.28
2023-05-19T02:30:28.300Z,101046.38
2023-05-19T02:32:57.277Z,101052.00
2023-05-19T02:35:31.325Z,101051.28
2023-05-19T02:37:58.964Z,101050.66
2023-05-19T02:40:31.665Z,101049.19
2023-05-19T02:42:58.374Z,101051.16
2023-05-19T02:45:28.090Z,101049.97
2023-05-19T02:47:54.798Z,101047.25
2023-05-19T02:50:22.657Z,101047.38
2023-05-19T02:52:49.292Z,101047.16
2023-05-19T02:55:17.730Z,101058.28
2023-05-19T02:57:46.269Z,101045.44
2023-05-19T03:00:13.550Z,101050.91
2023-05-19T03:02:44.448Z,101045.88
2023-05-19T03:05:11.282Z,101041.63
2023-05-19T03:07:37.914Z,101044.59
2023-05-19T03:10:06.739Z,101043.94
2023-05-19T03:12:33.861Z,101047.06
2023-05-19T03:15:01.019Z,101043.13
2023-05-19T03:17:28.859Z,101044.31
2023-05-19T03:19:55.852Z,101045.47
2023-05-19T03:22:22.492Z,101044.09
2023-05-19T03:24:51.191Z,101043.56
2023-05-19T03:27:17.901Z,101042.28
2023-05-19T03:29:44.533Z,101046.84
2023-05-19T03:32:11.271Z,101042.97
2023-05-19T03:34:37.942Z,101043.28
2023-05-19T03:37:04.865Z,101045.28
2023-05-19T03:39:31.543Z,101038.41
2023-05-19T03:41:58.176Z,101045.88
2023-05-19T03:44:24.813Z,101050.63
2023-05-19T03:46:53.050Z,101045.53
2023-05-19T03:49:19.686Z,101044.25
2023-05-19T03:51:46.267Z,101041.94
2023-05-19T03:54:14.044Z,101037.72
2023-05-19T03:56:43.283Z,101037.97
2023-05-19T03:59:12.383Z,101035.47
2023-05-19T04:01:39.203Z,101045.38
2023-05-19T04:04:05.900Z,101046.50
2023-05-19T04:06:33.957Z,101044.00
2023-05-19T04:09:04.093Z,101045.78
2023-05-19T04:11:30.841Z,101037.53
2023-05-19T04:13:57.528Z,101043.66
2023-05-19T04:16:24.353Z,101034.63
2023-05-19T04:18:51.215Z,101033.50
2023-05-19T04:21:17.874Z,101036.78
2023-05-19T04:23:46.612Z,101044.19
2023-05-19T04:26:14.823Z,101042.72
2023-05-19T04:28:42.503Z,101038.66
2023-05-19T04:31:13.171Z,101040.72
2023-05-19T04:33:41.019Z,101042.00
2023-05-19T04:36:10.630Z,101038.03
2023-05-19T04:38:39.958Z,101040.19
2023-05-19T04:41:10.718Z,101040.41
2023-05-19T04:43:41.839Z,101046.84
2023-05-19T04:46:13.194Z,101032.84
2023-05-19T04:48:41.267Z,101036.69
2023-05-19T04:51:08.145Z,101031.66
2023-05-19T04:53:35.064Z,101039.03
2023-05-19T04:56:02.307Z,101029.59
2023-05-19T04:58:29.113Z,101028.16
2023-05-19T05:00:56.545Z,101023.25
2023-05-19T05:03:23.741Z,101030.63
2023-05-19T05:05:51.068Z,101027.50
2023-05-19T05:08:25.155Z,101025.41
2023-05-19T05:10:53.042Z,101030.25
2023-05-19T05:13:22.999Z,101026.34
2023-05-19T05:15:50.305Z,101025.81
2023-05-19T05:18:17.998Z,101032.41
2023-05-19T05:20:49.164Z,101024.00
2023-05-19T05:23:16.806Z,101021.75
2023-05-19T05:25:45.186Z,101028.44
2023-05-19T05:28:11.995Z,101025.81
2023-05-19T05:30:38.939Z,101034.66
2023-05-19T05:33:09.657Z,101029.06
2023-05-19T05:35:36.601Z,101033.38
2023-05-19T05:38:05.255Z,101029.53
2023-05-19T05:40:37.050Z,101030.09
2023-05-19T05:43:03.660Z,101025.03
2023-05-19T05:45:30.426Z,101020.97
2023-05-19T05:48:06.281Z,101021.28
2023-05-19T05:50:38.958Z,101023.00
2023-05-19T05:53:09.612Z,101028.44
2023-05-19T05:55:36.581Z,101026.44
2023-05-19T05:58:03.726Z,101029.75
2023-05-19T06:00:38.282Z,101025.28
2023-05-19T06:03:11.401Z,101027.13
2023-05-19T06:05:38.681Z,101025.34
2023-05-19T06:08:13.298Z,101024.41
2023-05-19T06:10:41.845Z,101026.03
2023-05-19T06:13:13.709Z,101024.22
2023-05-19T06:15:40.450Z,101030.72
2023-05-19T06:18:07.291Z,101027.78
2023-05-19T06:20:36.495Z,101034.88
2023-05-19T06:23:07.685Z,101026.09
2023-05-19T06:25:35.196Z,101022.78
2023-05-19T06:28:04.660Z,101018.50
2023-05-19T06:30:31.758Z,101024.28
2023-05-19T06:32:59.366Z,101030.38
2023-05-19T06:35:26.170Z,101035.38
2023-05-19T06:37:53.216Z,101028.53
2023-05-19T06:40:23.375Z,101032.69
2023-05-19T06:42:50.048Z,101036.84
2023-05-19T06:45:17.127Z,101037.69
2023-05-19T06:47:51.176Z,101037.81
2023-05-19T06:50:17.952Z,101038.56
2023-05-19T06:52:47.058Z,101035.50
2023-05-19T06:55:19.542Z,101037.44
2023-05-19T06:57:48.266Z,101047.88
2023-05-19T07:00:23.651Z,101046.88
2023-05-19T07:03:09.030Z,101043.47
2023-05-19T07:05:39.411Z,101045.31
2023-05-19T07:08:06.898Z,101058.00
2023-05-19T07:10:35.714Z,101060.56
2023-05-19T07:13:03.416Z,101052.16
2023-05-19T07:15:30.051Z,101048.47
2023-05-19T07:18:04.706Z,101056.78
2023-05-19T07:20:33.727Z,101057.25
2023-05-19T07:23:02.666Z,101055.91
2023-05-19T07:25:35.199Z,101061.16
2023-05-19T07:28:01.799Z,101063.47
2023-05-19T07:30:34.470Z,101070.31
2023-05-19T07:33:04.092Z,101068.72
2023-05-19T07:35:33.668Z,101068.97
2023-05-19T07:38:00.296Z,101066.38
2023-05-19T07:40:27.088Z,101070.91
2023-05-19T07:42:58.938Z,101065.53
2023-05-19T07:45:25.776Z,101075.16
2023-05-19T07:47:54.348Z,101087.78
2023-05-19T07:50:24.100Z,101075.50
2023-05-19T07:52:52.121Z,101078.22
2023-05-19T07:55:23.524Z,101089.38
2023-05-19T07:57:53.000Z,101078.25
2023-05-19T08:00:21.005Z,101083.88
2023-05-19T08:02:47.965Z,101094.81
2023-05-19T08:05:17.694Z,101080.22
2023-05-19T08:07:44.524Z,101089.09
2023-05-19T08:10:13.350Z,101092.31
2023-05-19T08:12:40.159Z,101093.66
2023-05-19T08:15:08.541Z,101095.50
2023-05-19T08:17:40.398Z,101087.59
2023-05-19T08:20:15.617Z,101087.28
2023-05-19T08:22:47.615Z,101088.19
2023-05-19T08:25:14.337Z,101084.78
2023-05-19T08:27:41.473Z,101092.47
2023-05-19T08:30:16.168Z,101090.94
2023-05-19T08:32:44.143Z,101094.09
2023-05-19T08:35:13.656Z,101092.94
2023-05-19T08:37:41.050Z,101108.50
2023-05-19T08:40:17.421Z,101108.94
2023-05-19T08:42:50.179Z,101099.31
2023-05-19T08:45:17.900Z,101099.28
2023-05-19T08:47:47.138Z,101099.13
2023-05-19T08:50:21.459Z,101099.94
2023-05-19T08:52:53.540Z,101092.81
2023-05-19T08:55:51.690Z,101100.25
2023-05-19T08:58:23.528Z,101093.56
2023-05-19T09:00:51.292Z,101095.41
2023-05-19T09:06:00.716Z,101102.38
2023-05-19T09:08:29.291Z,101112.06
2023-05-19T09:11:00.914Z,101107.34
2023-05-19T09:13:29.609Z,101111.88
2023-05-19T09:16:01.740Z,101105.63
2023-05-19T09:18:28.426Z,101100.25
2023-05-19T09:21:04.911Z,101101.81
2023-05-19T09:23:41.000Z,101101.69
2023-05-19T09:26:10.405Z,101094.34
2023-05-19T09:28:40.654Z,101099.56
2023-05-19T09:31:14.151Z,101094.31
2023-05-19T09:33:45.629Z,101095.22
2023-05-19T09:36:19.163Z,101082.03
2023-05-19T09:38:46.026Z,101085.59
2023-05-19T09:41:16.850Z,101085.09
2023-05-19T09:43:57.556Z,101082.66
2023-05-19T09:46:32.291Z,101083.41
2023-05-19T09:49:19.593Z,101089.56
2023-05-19T09:51:48.437Z,101094.91
2023-05-19T09:54:17.893Z,101089.66
2023-05-19T09:56:44.577Z,101091.44
2023-05-19T09:59:16.432Z,101082.44
2023-05-19T10:01:51.485Z,101084.41
2023-05-19T10:04:18.441Z,101096.28
2023-05-19T10:06:57.616Z,101096.16
2023-05-19T10:09:26.166Z,101099.34
2023-05-19T10:11:54.187Z,101080.47
2023-05-19T10:14:26.552Z,101089.13
2023-05-19T10:16:56.389Z,101092.41
2023-05-19T10:19:24.952Z,101098.50
2023-05-19T10:21:52.555Z,101086.06
2023-05-19T10:24:19.773Z,101098.81
2023-05-19T10:27:03.093Z,101093.97
2023-05-19T10:29:33.342Z,101092.03
2023-05-19T10:32:07.433Z,101088.00
2023-05-19T10:35:11.746Z,101079.59
2023-05-19T10:37:46.653Z,101079.97
2023-05-19T10:40:27.681Z,101079.75
2023-05-19T10:43:05.438Z,101082.78
2023-05-19T10:45:41.064Z,101081.44
2023-05-19T10:48:14.010Z,101081.28
2023-05-19T10:50:40.789Z,101084.25
2023-05-19T10:53:14.858Z,101087.00
2023-05-19T10:55:47.442Z,101078.88
2023-05-19T10:58:14.314Z,101078.34
2023-05-19T11:00:43.751Z,101075.72
2023-05-19T11:03:15.636Z,101072.91
2023-05-19T11:05:45.908Z,101085.59
2023-05-19T11:08:13.292Z,101085.03
2023-05-19T11:10:43.584Z,101080.53
2023-05-19T11:13:22.472Z,101089.03
2023-05-19T11:15:50.023Z,101098.53
2023-05-19T11:18:16.848Z,101092.09
2023-05-19T11:20:44.711Z,101099.03
2023-05-19T11:23:19.603Z,101093.38
2023-05-19T11:25:51.652Z,101085.69
2023-05-19T11:28:20.276Z,101079.16
2023-05-19T11:30:50.590Z,101083.31
2023-05-19T11:33:19.499Z,101092.00
2023-05-19T11:35:47.461Z,101090.88
2023-05-19T11:38:14.573Z,101092.63
2023-05-19T11:40:44.925Z,101086.72
2023-05-19T11:43:11.574Z,101089.78
2023-05-19T11:45:38.518Z,101084.94
2023-05-19T11:48:06.088Z,101093.44
2023-05-19T11:50:33.371Z,101093.59
2023-05-19T11:53:01.183Z,101102.22
2023-05-19T11:55:29.144Z,101098.19
2023-05-19T11:58:03.847Z,101111.69
2023-05-19T12:00:40.813Z,101114.19
2023-05-19T12:03:10.749Z,101116.31
2023-05-19T12:05:43.786Z,101141.97
2023-05-19T12:08:11.704Z,101126.66
2023-05-19T12:10:39.536Z,101132.53
2023-05-19T12:13:09.168Z,101132.72
2023-05-19T12:15:36.617Z,101148.81
2023-05-19T12:18:04.077Z,101160.34
2023-05-19T12:20:32.706Z,101158.69
2023-05-19T12:23:00.904Z,101178.34
2023-05-19T12:25:29.369Z,101184.31
2023-05-19T12:28:06.145Z,101191.34
2023-05-19T12:30:34.318Z,101204.13
2023-05-19T12:33:02.841Z,101213.00
2023-05-19T12:35:32.264Z,101217.44
2023-05-19T12:38:03.968Z,101218.56
2023-05-19T12:40:30.931Z,101218.72
2023-05-19T12:42:59.306Z,101216.06
2023-05-19T12:45:28.448Z,101216.72
2023-05-19T12:47:56.264Z,101243.97
2023-05-19T12:50:33.135Z,101244.19
2023-05-19T12:53:00.081Z,101239.84
2023-05-19T12:55:26.960Z,101235.44
2023-05-19T12:57:57.180Z,101235.34
2023-05-19T13:00:28.957Z,101233.53
2023-05-19T13:03:00.654Z,101244.25
2023-05-19T13:05:38.076Z,101253.53
2023-05-19T13:08:16.316Z,101246.19
2023-05-19T13:10:46.302Z,101247.47
2023-05-19T13:13:14.172Z,101252.53
2023-05-19T13:15:44.421Z,101252.72
2023-05-19T13:18:13.086Z,101260.72
2023-05-19T13:20:45.433Z,101251.56
2023-05-19T13:23:14.450Z,101266.47
2023-05-19T13:25:42.408Z,101278.31
2023-05-19T13:28:10.674Z,101293.13
2023-05-19T13:30:42.034Z,101264.78
2023-05-19T13:33:09.092Z,101272.88
2023-05-19T13:35:39.772Z,101275.19
2023-05-19T13:38:10.082Z,101289.22
2023-05-19T13:40:37.770Z,101303.66
2023-05-19T13:43:04.834Z,101330.81
2023-05-19T13:45:31.738Z,101321.34
2023-05-19T13:47:58.700Z,101323.84
2023-05-19T13:50:27.259Z,101327.81
2023-05-19T13:52:54.241Z,101333.81
2023-05-19T13:55:21.226Z,101348.50
2023-05-19T13:57:48.013Z,101335.97
2023-05-19T14:00:18.391Z,101335.25
2023-05-19T14:02:45.810Z,101343.47
2023-05-19T14:05:15.390Z,101342.44
2023-05-19T14:07:44.838Z,101339.56
2023-05-19T14:10:11.793Z,101348.00
2023-05-19T14:12:55.066Z,101346.59
2023-05-19T14:15:27.442Z,101355.97
2023-05-19T14:17:55.117Z,101339.63
2023-05-19T14:20:23.788Z,101346.81
2023-05-19T14:22:50.939Z,101347.84
2023-05-19T14:25:17.767Z,101362.91
2023-05-19T14:27:44.559Z,101357.88
2023-05-19T14:30:11.673Z,101357.13
2023-05-19T14:32:39.343Z,101358.03
2023-05-19T14:35:12.101Z,101357.22
2023-05-19T14:37:38.869Z,101356.94
2023-05-19T14:40:07.380Z,101370.97
2023-05-19T14:42:34.189Z,101364.44
2023-05-19T14:45:01.087Z,101377.81
2023-05-19T14:47:28.375Z,101381.84
2023-05-19T14:49:55.321Z,101384.94
2023-05-19T14:52:22.840Z,101399.75
2023-05-19T14:54:49.742Z,101396.16
2023-05-19T14:57:16.489Z,101400.22
2023-05-19T14:59:43.318Z,101394.34
2023-05-19T15:02:13.369Z,101402.34
2023-05-19T15:04:40.289Z,101398.47
2023-05-19T15:07:10.119Z,101401.72
2023-05-19T15:09:37.907Z,101409.59
